Johan Adolf Pengel International Airport

SMJP | PBM

Zandery , Para , Suriname

Sunday, January 26th, 2020 | 20:12

Weather

SMJP 262300Z 05006KT 9999 -RA FEW010 SCT020 24/23 Q1013 NOSIG

Charts

1 Available

Gates

10 Available

Runways

1 Available

Events

No events for this airport


New event